Aktuální počasí v Česku a ve světě - METAR

Seznam meteostanic umístěných nejčasteji na letišti v ČR a ve světě

Vyhledat místa podle abecedy:
A B C D E F G H I J K L M N O P Q R S T U V W X Y Z

Filtrovat:

ID stanice:
a/nebo
Název místa (fulltext):
 
Místo (ID)Naposledy načteno 
Pardubice (Pardubice) 21.09.2020 02:00 UTC Zobrazit data
Místo: Pardubice
Teplota: 8 °C (pocitová: 5.5 °C)
Vítr: 1 m/s z(e) 120°
Počasí: slunečno
Dohlednost: 20 km
Zákl. oblačnosti: N/A
Vlhkost: 93%
Pec pod Sněžkou (Pec p.Snez) 21.09.2020 02:00 UTC Zobrazit data
Místo: Pec pod Sněžkou
Teplota: 6 °C (pocitová: 3.1 °C)
Vítr: 1 m/s z(e) 200°
Počasí:
Dohlednost: 35 km
Zákl. oblačnosti: N/A
Vlhkost: 93%
Plzeň město - Mikulka (Plzen/Miku) 21.09.2020 02:00 UTC Zobrazit data
Místo: Plzeň město - Mikulka
Teplota: 9 °C (pocitová: 3.9 °C)
Vítr: 4 m/s z(e) 360°
Počasí:
Dohlednost: 35 km
Zákl. oblačnosti: N/A
Vlhkost: 82%
Polom (Polom) 21.09.2020 02:00 UTC Zobrazit data
Místo: Polom
Teplota: 13 °C (pocitová: 10 °C)
Vítr: 3 m/s z(e) 150°
Počasí: slunečno
Dohlednost: 30 km
Zákl. oblačnosti: N/A
Vlhkost: 59%
Praha - Karlov (Praha/Kar) 21.09.2020 02:00 UTC Zobrazit data
Místo: Praha - Karlov
Teplota: 13 °C (pocitová: 21.2 °C)
Vítr: 0 m/s z(e) 0°
Počasí:
Dohlednost: 35 km
Zákl. oblačnosti: N/A
Vlhkost: 67%
Praha - Kbely (Praha/Kbe) 21.09.2020 02:00 UTC Zobrazit data
Místo: Praha - Kbely
Teplota: 10 °C (pocitová: 6 °C)
Vítr: 3 m/s z(e) 80°
Počasí: slunečno
Dohlednost: 30 km
Zákl. oblačnosti: N/A
Vlhkost: 82%
Praha - Libuš (Praha/Lib) 21.09.2020 02:00 UTC Zobrazit data
Místo: Praha - Libuš
Teplota: 10 °C (pocitová: 8 °C)
Vítr: 1 m/s z(e) 360°
Počasí:
Dohlednost: 35 km
Zákl. oblačnosti: N/A
Vlhkost: 76%
Praha - Ruzyně (Praha/Ru) 21.09.2020 02:00 UTC Zobrazit data
Místo: Praha - Ruzyně
Teplota: 10 °C (pocitová: 6.9 °C)
Vítr: 2 m/s z(e) 80°
Počasí: skorojasno
Dohlednost: 50 km
Zákl. oblačnosti: 1/8 9000 m
Vlhkost: 76%
Přibyslav (Pribyslav) 21.09.2020 02:00 UTC Zobrazit data
Místo: Přibyslav
Teplota: 10 °C (pocitová: 4.8 °C)
Vítr: 5 m/s z(e) 110°
Počasí:
Dohlednost: 35 km
Zákl. oblačnosti: N/A
Vlhkost: 71%
Přimda (Primda) 21.09.2020 02:00 UTC Zobrazit data
Místo: Přimda
Teplota: 10 °C (pocitová: 5.3 °C)
Vítr: 4 m/s z(e) 90°
Počasí:
Dohlednost: 35 km
Zákl. oblačnosti: N/A
Vlhkost: 71%
Pago Pago (NSTU) 20.09.2020 21:50 UTC Zobrazit METAR
NSTU 202150Z VRB03KT 12SM SCT023 BKN100 BKN220 29/25 A2994 RMK SLP141 T02910248
Palanga (EYPA) 21.09.2020 01:50 UTC Zobrazit METAR
EYPA 210150Z AUTO VRB02KT 9999 BKN019/// 14/11 Q1020
Palermo (LICJ) 21.09.2020 01:50 UTC Zobrazit METAR
LICJ 210150Z 17006KT CAVOK 25/20 Q1015
Palma de Mallorca (LEPA) 21.09.2020 02:00 UTC Zobrazit METAR
LEPA 210200Z 05003KT 9999 FEW025 19/17 Q1016 NOSIG
Panama City (MPTO) 21.09.2020 02:00 UTC Zobrazit METAR
MPTO 210200Z 00000KT 9999 SCT017 SCT090 25/25 Q1009 RWY DAMP NOSIG
Paramaribo (SMZO) 21.09.2020 00:00 UTC Zobrazit METAR
SMZO 210000Z 09008KT CAVOK 28/24 Q1011 NOSIG
Paris (LFPG) 21.09.2020 02:00 UTC Zobrazit METAR
LFPG 210200Z 01010KT CAVOK 15/08 Q1015 NOSIG
Paro (VQPR) 21.09.2020 02:30 UTC Zobrazit METAR
VQPR 210230Z VRB02KT 8000 SCT015 BKN060 18/14 Q1020
Phnom Penh (VDPP) 21.09.2020 02:00 UTC Zobrazit METAR
VDPP 210200Z VRB01KT 9999 SCT015 30/24 Q1009
Plovdiv (LBPD) 21.09.2020 02:00 UTC Zobrazit METAR
LBPD 210200Z AUTO VRB02KT 9999 OVC056 14/05 Q1020
Pohnpei I (PTPN) 19.09.2020 07:51 UTC Zobrazit METAR
PTPN 190751Z 18004KT 15SM SCT018 OVC300 27/25 A2979
Ponta Delgada (LPPD) 21.09.2020 02:00 UTC Zobrazit METAR
LPPD 210200Z 02014KT 9999 FEW016 BKN035 20/16 Q1017
Pori (EFPO) 21.09.2020 01:50 UTC Zobrazit METAR
EFPO 210150Z AUTO 30006KT CAVOK 10/03 Q1012
Port Moresby (AYPY) 21.09.2020 02:00 UTC Zobrazit METAR
AYPY 210200Z 14015KT 9999 FEW025 FEW040 32/25 Q1009
Port of Spain (TTPP) 21.09.2020 02:00 UTC Zobrazit METAR
TTPP 210200Z 00000KT 9999 FEW018 27/24 Q1013 NOSIG
Port Vila (NVVV) 21.09.2020 02:00 UTC Zobrazit METAR
NVVV 210200Z 14014KT 9999 BKN020 26/21 Q1014
Port-au-Prince (MTPP) 21.09.2020 01:59 UTC Zobrazit METAR
MTPP 210159Z AUTO 09005KT 9000 ////// 27/24 Q1012 A2989 NOSIG
Porto (LPPR) 21.09.2020 02:00 UTC Zobrazit METAR
LPPR 210200Z 10006KT 9999 FEW008 BKN010 16/16 Q1019
Poznan (EPPO) 21.09.2020 02:00 UTC Zobrazit METAR
EPPO 210200Z 06001KT CAVOK 07/05 Q1020
Prague (LKPR) 21.09.2020 02:00 UTC Zobrazit METAR
LKPR 210200Z VRB02KT CAVOK 10/06 Q1018 NOSIG
Praia (GVFM) Zatím nenačteno  
Pyongyang (ZKPY) Zatím nenačteno  
Reklama

Počasí na Váš email

Emaily jsou bez reklamy a bez spamu



Odhlásit newsletter




Další české internetové stránky (nejen) o počasí najdete v katalogu TOPlist - weby o počasí nebo vyhledejte na internetu, co jste tu na 🌞 Slunečnu ⛅ zatím nenašli:
⭐ Přidat Slunečno.cz do oblíbených | 🏠 Nastavit Slunečno.cz jako HOMEPAGE

⬆️ Posunout stránku nahoru ⬆️
Reklama